Time;durP1;ratioP1;P1;durP2;ratioP2;P2;SDS_P1;SDS_P2;PMS_P1;PMS_P2;Temp;Humidity;BMP_temperature;BMP_pressure;BME280_temperature;BME280_humidity;BME280_pressure;Samples;Min_cycle;Max_cycle;Signal;HPM_P1;HPM_P2
2022/05/29 00:01:41;;;;;;;4.90;4.10;;;;;;;14.23;78.14;97871.50;4112511;28;21097;-89
2022/05/29 00:03:44;;;;;;;4.63;3.70;;;;;;;14.20;78.62;97879.63;4125684;28;20700;-90
2022/05/29 00:05:49;;;;;;;4.90;4.40;;;;;;;14.19;78.19;97874.53;4094458;28;20757;-90
2022/05/29 00:07:52;;;;;;;5.20;3.77;;;;;;;14.20;79.08;97873.56;4091213;28;20668;-90
2022/05/29 00:09:55;;;;;;;5.63;3.70;;;;;;;14.19;78.44;97861.41;4111074;28;20654;-90
2022/05/29 00:12:00;;;;;;;4.60;3.60;;;;;;;14.19;78.90;97861.41;4111517;28;20827;-90
2022/05/29 00:14:03;;;;;;;5.00;3.30;;;;;;;14.15;75.35;97854.78;4105374;28;20679;-89
2022/05/29 00:16:07;;;;;;;5.03;2.83;;;;;;;14.22;75.33;97862.00;4110577;28;21408;-90
2022/05/29 00:18:12;;;;;;;3.10;2.80;;;;;;;14.22;72.88;97858.53;4115766;28;20650;-90
2022/05/29 00:20:15;;;;;;;5.47;4.33;;;;;;;14.23;75.97;97857.56;4110026;28;20734;-90
2022/05/29 00:22:20;;;;;;;4.07;3.63;;;;;;;14.27;76.71;97869.47;4096005;28;20754;-90
2022/05/29 00:24:23;;;;;;;4.20;3.70;;;;;;;14.29;77.27;97864.91;4130321;28;21070;-90
2022/05/29 00:26:27;;;;;;;4.10;3.53;;;;;;;14.27;78.48;97859.78;4098386;28;21200;-90
2022/05/29 00:28:30;;;;;;;5.83;3.80;;;;;;;14.30;78.69;97866.59;4109541;28;20638;-90
2022/05/29 00:30:33;;;;;;;9.33;4.50;;;;;;;14.31;78.69;97860.34;4109093;28;21076;-89
2022/05/29 00:32:36;;;;;;;5.30;3.60;;;;;;;14.33;78.25;97861.06;4127392;28;20655;-90
2022/05/29 00:34:41;;;;;;;4.90;3.63;;;;;;;14.33;78.25;97854.03;4129444;28;20621;-90
2022/05/29 00:36:44;;;;;;;4.03;3.63;;;;;;;14.34;77.76;97855.69;4093870;28;21317;-90
2022/05/29 00:38:49;;;;;;;5.07;3.80;;;;;;;14.35;76.70;97859.13;4129417;28;20634;-90
2022/05/29 00:40:56;;;;;;;7.83;3.50;;;;;;;14.36;76.03;97842.44;4106591;28;21288;-90
2022/05/29 00:43:00;;;;;;;5.80;3.70;;;;;;;14.35;75.58;97846.84;4112789;28;20666;-90
2022/05/29 00:45:03;;;;;;;4.70;3.27;;;;;;;14.33;76.01;97840.06;4126845;28;20785;-90
2022/05/29 00:47:12;;;;;;;7.23;3.70;;;;;;;14.30;76.24;97843.78;4095262;28;20628;-90
2022/05/29 00:49:17;;;;;;;4.40;3.50;;;;;;;14.24;76.65;97841.69;4089916;28;20751;-90
2022/05/29 00:51:23;;;;;;;4.30;3.33;;;;;;;14.21;75.85;97834.09;4107585;28;20627;-90
2022/05/29 00:53:27;;;;;;;4.30;3.20;;;;;;;14.19;73.12;97837.78;4098960;28;20631;-90
2022/05/29 00:55:31;;;;;;;4.57;2.70;;;;;;;14.14;67.96;97832.13;4091569;29;20636;-90
2022/05/29 00:57:37;;;;;;;4.53;2.77;;;;;;;14.18;68.53;97836.16;4113254;28;21194;-90
2022/05/29 00:59:40;;;;;;;3.57;2.40;;;;;;;14.18;67.58;97836.16;4127471;28;20734;-90
2022/05/29 01:01:44;;;;;;;2.57;2.00;;;;;;;14.21;65.57;97844.59;4100069;28;20635;-90
2022/05/29 01:03:47;;;;;;;3.73;2.10;;;;;;;14.19;63.19;97832.56;4127880;28;20664;-90
2022/05/29 01:05:51;;;;;;;3.53;2.00;;;;;;;14.21;63.21;97833.28;4098277;28;20675;-90
2022/05/29 01:07:59;;;;;;;4.43;2.30;;;;;;;14.24;65.13;97825.97;4111719;28;20698;-90
2022/05/29 01:10:02;;;;;;;4.60;2.70;;;;;;;14.26;63.68;97825.81;4111284;28;20647;-90
2022/05/29 01:12:08;;;;;;;3.83;2.73;;;;;;;14.21;63.04;97828.03;4124778;28;20637;-90
2022/05/29 01:14:22;;;;;;;8.00;3.47;;;;;;;14.22;61.97;97821.78;4125635;28;21098;-90
2022/05/29 01:16:34;;;;;;;7.70;3.40;;;;;;;14.17;62.36;97816.94;4124933;28;20641;-90
2022/05/29 01:18:45;;;;;;;6.90;3.00;;;;;;;14.22;64.76;97819.16;4125344;28;20627;-90
2022/05/29 01:21:05;;;;;;;5.93;2.50;;;;;;;14.21;65.07;97823.59;4107319;28;21186;-90
2022/05/29 01:23:47;;;;;;;3.17;2.37;;;;;;;14.23;68.37;97832.16;4087899;28;20688;-90
2022/05/29 01:26:11;;;;;;;3.80;2.70;;;;;;;14.24;70.28;97828.56;4107439;28;20654;-90
2022/05/29 01:28:29;;;;;;;5.07;2.80;;;;;;;14.23;72.03;97821.66;4103879;28;20671;-90
2022/05/29 01:30:34;;;;;;;5.23;2.97;;;;;;;14.21;72.08;97809.66;4108303;28;20691;-90
2022/05/29 01:32:41;;;;;;;4.53;3.63;;;;;;;14.21;72.11;97812.28;4109243;28;20635;-91
2022/05/29 01:34:47;;;;;;;3.60;2.70;;;;;;;14.21;72.68;97807.84;4110219;28;20689;-90
2022/05/29 01:37:09;;;;;;;3.60;2.47;;;;;;;14.20;70.33;97805.38;4095223;28;20648;-90
2022/05/29 01:39:15;;;;;;;3.47;2.80;;;;;;;14.20;70.60;97805.38;4126971;28;21343;-90
2022/05/29 01:41:21;;;;;;;4.10;2.90;;;;;;;14.21;71.89;97810.47;4111941;28;20682;-90
2022/05/29 01:43:32;;;;;;;5.03;3.37;;;;;;;14.23;72.21;97807.72;4122651;28;20700;-90
2022/05/29 01:45:53;;;;;;;4.83;3.67;;;;;;;14.22;72.63;97812.16;4106646;28;20698;-90
2022/05/29 01:48:04;;;;;;;5.00;3.17;;;;;;;14.21;72.92;97807.03;4122719;28;21082;-90
2022/05/29 01:50:24;;;;;;;3.70;3.23;;;;;;;14.14;72.82;97795.41;4127034;28;20680;-90
2022/05/29 01:52:32;;;;;;;4.60;3.37;;;;;;;14.10;74.31;97799.25;4128306;28;20642;-90
2022/05/29 01:54:38;;;;;;;5.17;3.43;;;;;;;14.09;74.87;97791.50;4090391;28;20674;-90
2022/05/29 01:56:49;;;;;;;3.40;3.10;;;;;;;14.04;74.95;97791.06;4133588;28;20644;-90
2022/05/29 01:58:56;;;;;;;6.83;3.67;;;;;;;14.05;75.65;97795.38;4095034;28;20672;-90
2022/05/29 02:01:02;;;;;;;4.90;3.60;;;;;;;14.01;75.13;97781.69;4108551;28;20681;-90
2022/05/29 02:03:08;;;;;;;5.93;3.40;;;;;;;13.95;75.88;97784.84;4093216;28;20623;-90
2022/05/29 02:05:15;;;;;;;6.30;3.90;;;;;;;13.93;76.68;97778.88;4108118;28;21221;-90
2022/05/29 02:09:41;;;;;;;5.73;3.70;;;;;;;13.89;79.55;97772.25;4117664;28;20642;-90
2022/05/29 02:11:50;;;;;;;5.17;3.60;;;;;;;13.83;79.77;97764.94;4111433;28;20664;-90
2022/05/29 02:13:58;;;;;;;5.17;3.90;;;;;;;13.79;80.86;97768.75;4127253;28;20729;-89
2022/05/29 02:16:05;;;;;;;6.27;3.70;;;;;;;13.76;80.35;97753.28;4106039;28;20674;-90
2022/05/29 02:18:13;;;;;;;4.63;3.70;;;;;;;13.73;81.15;97755.38;4106554;28;20706;-90
2022/05/29 02:20:20;;;;;;;4.87;4.33;;;;;;;13.68;80.54;97752.28;4107694;28;21213;-90
2022/05/29 02:22:27;;;;;;;3.57;3.27;;;;;;;13.65;81.22;97750.78;4125959;28;21077;-90
2022/05/29 02:24:33;;;;;;;3.97;3.17;;;;;;;13.63;80.43;97737.94;4108392;28;20653;-90
2022/05/29 02:26:42;;;;;;;4.50;3.40;;;;;;;13.60;79.42;97743.44;4109067;28;20683;-90
2022/05/29 02:28:48;;;;;;;4.10;3.60;;;;;;;13.57;79.22;97738.47;4125343;28;21260;-90
2022/05/29 02:30:59;;;;;;;4.13;3.67;;;;;;;13.57;79.22;97743.69;4100150;28;20638;-90
2022/05/29 02:33:06;;;;;;;5.60;3.60;;;;;;;13.53;78.88;97740.53;4108123;28;21248;-89
2022/05/29 02:35:13;;;;;;;6.50;4.13;;;;;;;13.55;80.15;97735.16;4109536;28;20629;-90
2022/05/29 02:37:22;;;;;;;4.00;3.13;;;;;;;13.52;79.36;97732.81;4124490;28;20695;-90
2022/05/29 02:39:44;;;;;;;6.00;2.83;;;;;;;13.51;79.22;97731.94;4109575;28;20690;-89
2022/05/29 02:41:54;;;;;;;5.93;3.50;;;;;;;13.47;81.59;97721.84;4120955;28;20729;-90
2022/05/29 02:44:01;;;;;;;3.87;3.57;;;;;;;13.45;81.54;97729.03;4112914;28;20697;-90
2022/05/29 02:46:12;;;;;;;4.63;3.83;;;;;;;13.41;82.19;97727.63;4109465;28;21250;-90
2022/05/29 02:48:21;;;;;;;6.03;3.80;;;;;;;13.33;81.59;97723.03;4092971;28;20671;-90
2022/05/29 02:50:33;;;;;;;4.40;4.00;;;;;;;13.32;82.14;97720.53;4126037;28;21046;-90
2022/05/29 02:52:39;;;;;;;7.30;3.80;;;;;;;13.30;81.97;97709.38;4104910;28;20650;-90
2022/05/29 02:54:42;;;;;;;6.27;3.30;;;;;;;13.32;82.32;97710.06;4095326;28;21261;-90
2022/05/29 02:56:45;;;;;;;5.33;3.37;;;;;;;13.27;81.98;97707.03;4109744;28;20630;-90
2022/05/29 02:58:50;;;;;;;5.23;3.67;;;;;;;13.27;82.03;97712.25;4107277;28;20636;-90
2022/05/29 03:01:11;;;;;;;6.93;4.10;;;;;;;13.28;82.62;97709.50;4109616;28;20709;-90
2022/05/29 03:03:18;;;;;;;5.10;4.03;;;;;;;13.25;81.76;97714.19;4106416;28;22093;-90
2022/05/29 03:05:25;;;;;;;4.40;3.60;;;;;;;13.25;82.32;97709.75;4124764;28;20640;-90
2022/05/29 03:07:39;;;;;;;8.00;3.80;;;;;;;13.19;82.65;97706.84;4116237;28;21362;-89
2022/05/29 03:09:46;;;;;;;7.00;4.20;;;;;;;13.11;82.67;97706.69;4119449;28;20653;-90
2022/05/29 03:11:50;;;;;;;7.27;3.63;;;;;;;13.11;83.06;97703.22;4110695;28;20632;-90
2022/05/29 03:13:55;;;;;;;4.40;3.60;;;;;;;13.10;81.10;97705.00;4108387;28;20642;-90
2022/05/29 03:16:03;;;;;;;6.27;3.20;;;;;;;13.10;81.43;97712.03;4104306;28;20661;-90
2022/05/29 03:18:19;;;;;;;5.20;3.30;;;;;;;13.08;79.95;97712.16;4094232;28;20634;-90
2022/05/29 03:20:29;;;;;;;4.07;2.77;;;;;;;13.09;79.93;97713.81;4092160;28;20643;-89
2022/05/29 03:22:39;;;;;;;4.40;3.07;;;;;;;13.12;80.95;97716.16;4124813;28;20646;-90
2022/05/29 03:24:45;;;;;;;5.10;3.30;;;;;;;13.11;79.71;97717.16;4099775;28;20657;-89
2022/05/29 03:26:54;;;;;;;3.90;2.93;;;;;;;13.13;81.04;97715.22;4107309;28;20761;-89
2022/05/29 03:29:04;;;;;;;6.50;3.03;;;;;;;13.15;79.38;97713.28;4104345;28;20680;-90
2022/05/29 03:31:11;;;;;;;5.30;4.00;;;;;;;13.14;78.73;97706.41;4107657;28;20732;-89
2022/05/29 03:33:17;;;;;;;4.30;3.13;;;;;;;13.13;79.14;97703.94;4107549;28;20633;-88
2022/05/29 03:35:24;;;;;;;3.20;2.77;;;;;;;13.13;78.60;97714.41;4126544;28;21258;-88
2022/05/29 03:37:27;;;;;;;4.00;2.93;;;;;;;13.05;71.48;97712.44;4087460;28;20657;-88
2022/05/29 03:39:30;;;;;;;5.43;2.40;;;;;;;13.06;72.96;97716.69;4105292;28;21048;-89
2022/05/29 03:41:39;;;;;;;3.50;2.20;;;;;;;13.16;73.38;97720.19;4110512;28;21044;-89
2022/05/29 03:43:43;;;;;;;3.23;2.60;;;;;;;13.20;74.81;97722.44;4121896;28;20753;-88
2022/05/29 03:45:52;;;;;;;6.67;3.30;;;;;;;13.23;75.45;97727.41;4124439;28;20651;-89
2022/05/29 03:47:55;;;;;;;4.83;3.10;;;;;;;13.19;77.51;97726.00;4091618;28;20651;-90
2022/05/29 03:50:00;;;;;;;6.40;2.97;;;;;;;13.18;76.48;97724.34;4121660;28;20639;-89
2022/05/29 03:52:04;;;;;;;3.57;2.90;;;;;;;13.20;76.49;97724.22;4102916;28;20644;-89
2022/05/29 03:54:08;;;;;;;4.33;2.60;;;;;;;13.19;75.26;97726.00;4092224;28;20631;-89
2022/05/29 03:56:11;;;;;;;3.33;2.70;;;;;;;13.19;77.01;97725.19;4128977;28;20661;-90
2022/05/29 03:58:14;;;;;;;4.20;2.77;;;;;;;13.20;77.61;97725.06;4111247;28;20728;-89
2022/05/29 04:00:19;;;;;;;4.07;3.20;;;;;;;13.22;79.83;97720.50;4096369;28;20643;-90
2022/05/29 04:02:22;;;;;;;3.90;2.90;;;;;;;13.24;79.26;97725.59;4103973;28;20666;-90
2022/05/29 04:04:25;;;;;;;3.13;2.83;;;;;;;13.26;79.35;97724.53;4125020;28;20648;-90
2022/05/29 04:06:34;;;;;;;4.63;3.43;;;;;;;13.26;77.16;97723.69;4108255;28;20675;-90
2022/05/29 04:13:23;;;;;;;5.57;3.80;;;;;;;13.16;75.92;97719.38;4098089;28;21580;-90
2022/05/29 04:15:27;;;;;;;5.63;3.53;;;;;;;13.18;76.86;97737.47;4094269;29;20742;-90
2022/05/29 04:17:30;;;;;;;5.17;4.67;;;;;;;13.16;76.76;97735.09;4122766;28;20631;-90
2022/05/29 04:19:33;;;;;;;8.63;5.40;;;;;;;13.13;77.71;97730.94;4110601;28;20636;-90
2022/05/29 04:21:44;;;;;;;7.50;4.20;;;;;;;13.12;79.55;97720.59;4112448;28;20649;-90
2022/05/29 04:23:48;;;;;;;4.40;3.30;;;;;;;13.09;78.37;97729.50;4093778;28;20694;-90
2022/05/29 04:25:51;;;;;;;4.13;3.73;;;;;;;13.12;79.36;97728.44;4108695;28;21269;-90
2022/05/29 04:27:54;;;;;;;4.40;3.53;;;;;;;13.17;78.32;97728.88;4109055;28;20658;-90
2022/05/29 04:30:03;;;;;;;5.00;3.33;;;;;;;13.16;77.85;97728.06;4102165;28;20644;-90
2022/05/29 04:34:33;;;;;;;6.07;3.30;;;;;;;13.00;76.35;97719.81;4111062;28;20685;-90
2022/05/29 04:36:36;;;;;;;3.67;2.97;;;;;;;12.99;76.99;97725.19;4124057;28;21196;-90
2022/05/29 04:38:41;;;;;;;5.33;3.20;;;;;;;13.00;77.79;97721.63;4111401;28;20680;-90
2022/05/29 04:40:49;;;;;;;5.43;3.27;;;;;;;13.06;78.28;97734.19;4110223;28;20669;-90
2022/05/29 04:42:52;;;;;;;4.70;2.73;;;;;;;13.10;77.89;97727.75;4128886;28;21410;-90
2022/05/29 04:44:55;;;;;;;6.47;3.27;;;;;;;13.13;76.22;97723.06;4096138;28;20641;-90
2022/05/29 04:46:59;;;;;;;3.67;2.63;;;;;;;13.19;78.28;97731.22;4110792;28;21248;-91
2022/05/29 04:49:02;;;;;;;3.77;2.80;;;;;;;13.21;77.21;97731.09;4106357;28;21250;-90
2022/05/29 04:51:06;;;;;;;3.30;2.43;;;;;;;13.24;76.27;97728.22;4106146;28;21190;-90
2022/05/29 04:53:10;;;;;;;2.87;2.33;;;;;;;13.24;75.92;97726.47;4127881;28;21331;-89
2022/05/29 04:55:14;;;;;;;4.17;2.33;;;;;;;13.22;73.26;97727.53;4089449;28;20781;-89
2022/05/29 04:57:18;;;;;;;3.73;2.30;;;;;;;13.18;74.77;97720.88;4111793;28;21223;-90
2022/05/29 04:59:22;;;;;;;4.17;2.40;;;;;;;13.19;73.48;97720.75;4109311;28;20648;-90
2022/05/29 05:01:29;;;;;;;2.97;2.20;;;;;;;13.20;72.54;97719.81;4121416;28;20675;-90
2022/05/29 05:03:32;;;;;;;3.40;2.27;;;;;;;13.22;72.85;97719.69;4091656;28;20700;-90
2022/05/29 05:05:36;;;;;;;8.47;2.50;;;;;;;13.14;72.34;97713.41;4095114;28;20743;-90
2022/05/29 05:08:04;;;;;;;3.93;2.30;;;;;;;13.15;72.11;97715.91;4110691;28;20660;-90
2022/05/29 05:10:11;;;;;;;6.80;2.40;;;;;;;13.11;72.09;97714.53;4108083;28;20668;-90
2022/05/29 05:12:15;;;;;;;5.83;2.20;;;;;;;13.08;73.00;97704.31;4112342;28;20713;-90
2022/05/29 05:14:19;;;;;;;4.43;2.40;;;;;;;13.10;73.53;97709.41;4096073;28;21161;-90
2022/05/29 05:16:23;;;;;;;4.63;2.20;;;;;;;13.07;72.39;97702.66;4125476;28;20625;-90
2022/05/29 05:18:26;;;;;;;3.33;2.13;;;;;;;13.02;72.30;97714.44;4109319;28;21041;-90
2022/05/29 05:20:30;;;;;;;5.40;2.27;;;;;;;12.94;73.27;97704.63;4092752;28;20661;-89
2022/05/29 05:22:33;;;;;;;3.57;2.27;;;;;;;12.87;72.17;97707.88;4124501;28;21044;-91
2022/05/29 05:24:38;;;;;;;5.20;2.43;;;;;;;12.85;72.78;97694.94;4111306;28;21026;-90
2022/05/29 05:26:41;;;;;;;6.03;2.37;;;;;;;12.90;72.82;97702.38;4096707;28;20637;-90
2022/05/29 05:28:45;;;;;;;4.37;2.20;;;;;;;12.97;72.95;97706.16;4102759;28;20654;-90
2022/05/29 05:30:49;;;;;;;2.40;2.07;;;;;;;12.94;74.11;97707.25;4124450;28;20663;-90
2022/05/29 05:32:52;;;;;;;6.97;2.33;;;;;;;12.94;72.65;97702.00;4106533;28;21356;-90
2022/05/29 05:34:55;;;;;;;4.53;2.30;;;;;;;12.97;72.81;97712.22;4123275;28;21044;-90
2022/05/29 05:36:58;;;;;;;4.63;1.90;;;;;;;12.95;72.32;97710.72;4110174;28;20668;-90
2022/05/29 05:39:01;;;;;;;5.50;2.30;;;;;;;12.95;71.53;97714.16;4092368;28;21035;-89
2022/05/29 05:41:04;;;;;;;6.00;2.20;;;;;;;12.99;72.50;97710.31;4126651;28;21260;-93
2022/05/29 05:43:08;;;;;;;3.70;2.23;;;;;;;13.08;72.24;97712.16;4103645;28;21055;-90
2022/05/29 05:45:13;;;;;;;4.67;2.10;;;;;;;13.15;72.66;97713.28;4125971;28;21317;-90
2022/05/29 05:47:21;;;;;;;4.17;2.00;;;;;;;13.22;72.85;97722.31;4109011;28;20731;-91
2022/05/29 05:49:24;;;;;;;5.07;2.60;;;;;;;13.32;72.29;97717.91;4118985;28;20663;-90
2022/05/29 05:51:27;;;;;;;4.73;2.10;;;;;;;13.39;72.50;97712.03;4127447;28;20678;-90
2022/05/29 05:53:33;;;;;;;6.23;2.17;;;;;;;13.50;70.98;97718.97;4121108;28;21543;-90
2022/05/29 05:55:39;;;;;;;4.30;2.10;;;;;;;13.59;71.83;97712.94;4088590;28;20646;-90
2022/05/29 05:57:42;;;;;;;6.60;2.67;;;;;;;13.66;70.95;97715.72;4121902;28;21336;-90
2022/05/29 05:59:45;;;;;;;4.53;2.40;;;;;;;13.73;71.91;97710.81;4108725;28;20777;-89
2022/05/29 06:01:50;;;;;;;3.30;1.80;;;;;;;13.78;72.22;97712.03;4122341;28;21205;-90
2022/05/29 06:03:53;;;;;;;3.53;1.97;;;;;;;13.84;71.92;97708.88;4124997;28;20716;-90
2022/05/29 06:05:58;;;;;;;5.77;2.13;;;;;;;13.88;72.04;97712.91;4109272;28;20649;-90
2022/05/29 06:08:01;;;;;;;5.63;2.47;;;;;;;13.84;71.97;97708.88;4127153;28;20644;-90
2022/05/29 06:10:05;;;;;;;5.20;2.30;;;;;;;13.82;70.78;97708.22;4109633;28;20657;-91
2022/05/29 06:12:09;;;;;;;4.80;2.50;;;;;;;13.77;70.79;97705.16;4106362;28;21311;-88
2022/05/29 06:14:21;;;;;;;5.23;2.50;;;;;;;13.75;70.79;97708.88;4124194;28;21283;-87
2022/05/29 06:16:24;;;;;;;3.60;2.30;;;;;;;13.71;70.06;97710.94;4092266;28;20662;-83
2022/05/29 06:18:29;;;;;;;6.03;2.10;;;;;;;13.65;70.61;97711.47;4108922;28;20738;-86
2022/05/29 06:20:32;;;;;;;5.37;2.20;;;;;;;13.61;71.19;97721.53;4107466;28;20673;-85
2022/05/29 06:22:37;;;;;;;4.20;2.10;;;;;;;13.57;70.46;97715.69;4103930;28;21014;-86
2022/05/29 06:24:40;;;;;;;4.43;2.10;;;;;;;13.51;70.81;97725.88;4124925;28;20632;-89
2022/05/29 06:26:43;;;;;;;4.60;2.80;;;;;;;13.46;72.35;97726.28;4107823;28;20691;-87
2022/05/29 06:28:46;;;;;;;7.00;2.63;;;;;;;13.48;71.62;97723.53;4092646;28;20673;-89
2022/05/29 06:30:49;;;;;;;3.40;1.80;;;;;;;13.43;71.29;97723.91;4107093;28;20668;-85
2022/05/29 06:32:53;;;;;;;3.67;2.27;;;;;;;13.44;70.43;97729.97;4093714;28;21278;-92
2022/05/29 06:34:58;;;;;;;4.47;2.70;;;;;;;13.43;70.74;97726.53;4108198;28;20634;-88
2022/05/29 06:37:04;;;;;;;4.47;2.40;;;;;;;13.34;69.71;97726.50;4110487;28;20626;-88
2022/05/29 06:39:07;;;;;;;7.53;2.97;;;;;;;13.40;71.21;97725.97;4090169;28;20741;-89
2022/05/29 06:41:12;;;;;;;6.63;2.60;;;;;;;13.52;72.55;97730.19;4108283;28;20661;-82
2022/05/29 06:43:17;;;;;;;5.17;2.43;;;;;;;13.61;74.07;97732.00;4100797;28;20633;-84
2022/05/29 06:45:26;;;;;;;5.20;2.37;;;;;;;13.74;74.83;97733.41;4103920;28;20645;-93
2022/05/29 06:47:42;;;;;;;7.23;3.00;;;;;;;13.88;73.56;97738.31;4090392;28;21329;-91
2022/05/29 06:49:48;;;;;;;7.13;3.77;;;;;;;13.96;73.52;97730.59;4122192;28;20645;-91
2022/05/29 06:51:53;;;;;;;5.73;3.20;;;;;;;14.05;75.32;97732.44;4106607;28;21615;-92
2022/05/29 06:53:56;;;;;;;5.83;2.90;;;;;;;14.15;73.42;97734.94;4106642;28;20621;-90
2022/05/29 06:55:59;;;;;;;5.53;2.40;;;;;;;14.17;73.49;97732.19;4107296;28;20634;-90
2022/05/29 06:58:02;;;;;;;6.07;2.90;;;;;;;14.26;76.19;97737.44;4112086;28;21279;-90
2022/05/29 07:07:14;;;;;;;6.57;2.50;;;;;;;14.97;75.67;97743.13;4111739;28;21252;-92
2022/05/29 07:09:17;;;;;;;3.67;2.50;;;;;;;15.26;73.35;97749.19;4101385;28;21045;-85
2022/05/29 07:11:24;;;;;;;6.83;2.77;;;;;;;15.47;74.59;97744.56;4119634;28;21298;-85
2022/05/29 07:13:27;;;;;;;4.13;2.23;;;;;;;15.73;71.84;97747.25;4124508;28;20629;-83
2022/05/29 07:15:31;;;;;;;7.13;2.80;;;;;;;15.89;73.56;97754.50;4108430;28;20637;-86
2022/05/29 07:17:36;;;;;;;4.00;2.50;;;;;;;15.94;73.15;97749.66;4108319;28;20730;-86
2022/05/29 07:19:41;;;;;;;5.67;2.37;;;;;;;15.99;71.21;97761.38;4108467;28;21241;-89
2022/05/29 07:21:44;;;;;;;5.17;2.70;;;;;;;15.98;69.80;97756.28;4109222;28;20637;-87
2022/05/29 07:23:49;;;;;;;4.97;2.20;;;;;;;16.02;72.52;97760.28;4095916;28;20661;-88
2022/05/29 07:26:19;;;;;;;6.77;2.93;;;;;;;16.13;69.92;97755.63;4090382;28;20636;-91
2022/05/29 07:28:23;;;;;;;4.53;2.70;;;;;;;16.18;68.87;97758.69;4059409;29;20637;-92
2022/05/29 07:30:26;;;;;;;5.70;2.97;;;;;;;16.21;67.58;97763.66;4083815;28;20675;-91
2022/05/29 07:32:30;;;;;;;4.43;2.20;;;;;;;16.20;67.53;97761.97;4104494;28;20663;-90
2022/05/29 07:34:34;;;;;;;6.70;2.77;;;;;;;16.21;69.00;97761.00;4103425;28;21624;-91
2022/05/29 07:36:38;;;;;;;5.13;2.40;;;;;;;16.19;67.94;97753.25;4108542;28;21274;-91
2022/05/29 07:38:42;;;;;;;4.20;2.90;;;;;;;16.18;67.15;97769.19;4119747;28;20618;-91
2022/05/29 07:40:48;;;;;;;4.90;2.80;;;;;;;16.16;66.96;97761.44;4123418;28;20726;-93
2022/05/29 07:45:12;;;;;;;9.93;2.60;;;;;;;16.16;63.08;97768.50;4107094;28;20620;-89
2022/05/29 07:47:15;;;;;;;7.50;2.57;;;;;;;16.33;64.00;97762.50;4097135;28;21242;-91
2022/05/29 07:49:18;;;;;;;5.53;2.10;;;;;;;16.36;62.60;97762.22;4093725;28;20744;-90
2022/05/29 07:51:22;;;;;;;5.53;2.30;;;;;;;16.69;63.61;97765.84;4123122;28;20648;-90
2022/05/29 07:53:25;;;;;;;5.80;2.23;;;;;;;17.21;63.01;97765.81;4109507;28;20723;-91
2022/05/29 07:55:28;;;;;;;6.47;2.20;;;;;;;17.92;61.16;97781.31;4098187;29;20628;-90
2022/05/29 07:57:33;;;;;;;5.33;2.30;;;;;;;18.00;59.34;97778.69;4113224;28;20628;-90
2022/05/29 07:59:36;;;;;;;4.50;2.40;;;;;;;18.20;62.00;97778.31;4114058;28;21102;-90
2022/05/29 08:01:43;;;;;;;6.40;2.70;;;;;;;18.18;59.80;97768.91;4098082;28;21057;-91
2022/05/29 08:03:48;;;;;;;4.70;1.93;;;;;;;17.98;60.04;97775.38;4111567;28;20683;-90
2022/05/29 08:05:51;;;;;;;6.93;2.40;;;;;;;18.05;62.50;97771.94;4115642;28;20741;-91
2022/05/29 08:07:54;;;;;;;6.20;2.00;;;;;;;18.26;64.67;97775.03;4099783;28;21067;-92
2022/05/29 08:09:58;;;;;;;7.20;2.00;;;;;;;18.48;61.88;97775.28;4108944;28;20676;-91
2022/05/29 08:12:01;;;;;;;3.13;1.80;;;;;;;18.47;60.94;97778.91;4126627;28;20628;-91
2022/05/29 08:14:06;;;;;;;3.50;2.00;;;;;;;18.44;60.20;97773.13;4113638;28;20637;-90
2022/05/29 08:16:10;;;;;;;5.00;2.00;;;;;;;18.41;60.81;97780.56;4126445;28;20647;-90
2022/05/29 08:18:13;;;;;;;2.80;1.80;;;;;;;18.80;58.95;97782.47;4125360;28;20666;-91
2022/05/29 08:20:17;;;;;;;2.90;1.73;;;;;;;19.20;57.71;97778.06;4098453;28;20716;-89
2022/05/29 08:22:20;;;;;;;3.33;1.80;;;;;;;19.06;54.55;97781.34;4114283;28;20665;-90
2022/05/29 08:32:04;;;;;;;4.30;1.70;;;;;;;19.68;54.39;97778.84;4050727;29;20668;-90
2022/05/29 08:34:17;;;;;;;5.50;1.70;;;;;;;19.48;52.88;97762.53;4064611;29;20667;-90
2022/05/29 08:36:24;;;;;;;6.33;2.73;;;;;;;19.28;54.08;97764.84;4050157;28;20655;-90
2022/05/29 08:38:28;;;;;;;5.80;1.80;;;;;;;19.22;56.98;97765.50;4117809;28;20637;-89
2022/05/29 08:40:33;;;;;;;2.67;1.63;;;;;;;19.65;56.16;97755.34;4103639;28;20737;-91
2022/05/29 08:42:37;;;;;;;4.00;2.07;;;;;;;19.89;54.30;97761.44;4110349;28;21217;-90
2022/05/29 08:44:46;;;;;;;5.90;1.80;;;;;;;20.03;55.58;97763.41;4107811;28;20658;-90
2022/05/29 08:46:52;;;;;;;3.60;1.70;;;;;;;20.34;54.85;97760.63;4129621;28;20759;-91
2022/05/29 08:48:57;;;;;;;4.00;1.77;;;;;;;20.67;54.61;97766.56;4097074;28;20698;-90
2022/05/29 08:51:14;;;;;;;4.17;1.90;;;;;;;20.69;54.15;97762.78;4108508;28;20660;-90
2022/05/29 08:53:27;;;;;;;4.53;2.00;;;;;;;20.90;53.70;97760.34;4131080;28;20633;-89
2022/05/29 08:55:45;;;;;;;4.93;2.13;;;;;;;20.13;57.66;97751.63;4112088;28;20677;-88
2022/05/29 08:58:01;;;;;;;6.60;2.80;;;;;;;19.50;57.04;97746.44;4124302;28;20638;-88
2022/05/29 09:00:07;;;;;;;6.37;2.53;;;;;;;18.88;58.98;97742.81;4089075;28;20655;-88
2022/05/29 09:02:14;;;;;;;4.70;2.50;;;;;;;18.34;59.77;97742.53;4108281;28;21049;-89
2022/05/29 09:04:26;;;;;;;7.53;3.17;;;;;;;17.90;59.97;97740.22;4121938;28;20707;-89
2022/05/29 09:06:33;;;;;;;7.20;2.40;;;;;;;17.50;61.88;97735.56;4110127;28;21042;-89
2022/05/29 09:08:41;;;;;;;5.03;2.30;;;;;;;17.24;61.91;97730.44;4106007;28;20630;-89
2022/05/29 09:10:47;;;;;;;6.80;2.43;;;;;;;16.65;62.30;97724.97;4123824;28;20656;-89
2022/05/29 09:12:53;;;;;;;5.10;2.90;;;;;;;16.44;63.55;97730.69;4126725;28;21339;-89
2022/05/29 09:15:03;;;;;;;7.40;4.00;;;;;;;16.16;64.75;97729.03;4096094;28;20636;-88
2022/05/29 09:17:13;;;;;;;5.60;2.70;;;;;;;16.20;63.59;97722.50;4103925;28;20645;-91
2022/05/29 09:19:24;;;;;;;4.90;2.67;;;;;;;16.03;64.03;97723.31;4112829;28;21231;-91
2022/05/29 09:21:32;;;;;;;5.97;2.87;;;;;;;15.98;65.65;97719.44;4123197;28;20685;-91
2022/05/29 09:23:52;;;;;;;7.07;3.13;;;;;;;15.82;66.29;97717.44;4088472;28;20748;-89
2022/05/29 09:25:57;;;;;;;8.30;4.23;;;;;;;15.69;64.64;97719.56;4124405;28;21201;-88
2022/05/29 09:28:02;;;;;;;7.97;2.77;;;;;;;15.54;64.42;97719.38;4093600;28;20751;-89
2022/05/29 09:30:07;;;;;;;7.33;2.70;;;;;;;15.26;65.21;97718.50;4123250;28;21270;-87
2022/05/29 09:32:15;;;;;;;7.83;2.50;;;;;;;15.18;64.99;97721.03;4102703;28;20746;-88
2022/05/29 09:34:18;;;;;;;3.90;2.60;;;;;;;15.23;64.97;97720.56;4113582;28;21245;-87
2022/05/29 09:36:26;;;;;;;6.80;2.80;;;;;;;15.13;65.27;97719.75;4126376;28;20649;-88
2022/05/29 09:38:34;;;;;;;6.50;2.77;;;;;;;15.06;66.10;97734.41;4119164;28;20654;-88
2022/05/29 09:40:41;;;;;;;5.73;2.73;;;;;;;15.09;65.66;97729.72;4117822;28;21243;-88
2022/05/29 09:42:44;;;;;;;7.10;2.93;;;;;;;15.15;66.50;97723.91;4109038;28;21097;-88
2022/05/29 09:45:09;;;;;;;4.87;2.50;;;;;;;15.00;65.83;97729.72;4109122;28;21160;-87
2022/05/29 09:50:05;;;;;;;8.73;2.67;;;;;;;14.95;66.27;97728.50;4122155;28;21258;-88
2022/05/29 09:52:11;;;;;;;5.00;2.43;;;;;;;14.90;65.58;97728.06;4110817;28;20740;-87
2022/05/29 09:54:23;;;;;;;6.80;3.10;;;;;;;14.89;65.50;97729.88;4106004;28;21240;-91
2022/05/29 09:56:29;;;;;;;7.20;3.73;;;;;;;14.86;65.36;97731.97;4120845;28;20630;-89
2022/05/29 09:58:39;;;;;;;19.60;14.73;;;;;;;14.89;67.28;97729.88;4119388;28;20641;-89
2022/05/29 10:00:54;;;;;;;5.80;3.13;;;;;;;14.91;66.54;97730.56;4102270;28;20633;-86
2022/05/29 10:03:01;;;;;;;4.80;2.97;;;;;;;14.89;66.05;97731.69;4125685;28;20649;-91
2022/05/29 10:05:43;;;;;;;4.97;2.50;;;;;;;14.74;67.37;97733.88;4125103;28;20640;-91
2022/05/29 10:07:47;;;;;;;7.67;2.30;;;;;;;14.74;66.10;97739.13;4091478;28;20659;-88
2022/05/29 10:10:12;;;;;;;7.23;4.40;;;;;;;14.75;67.93;97740.81;4125551;28;20669;-89
2022/05/29 10:12:18;;;;;;;6.47;2.50;;;;;;;14.73;67.85;97740.13;4094284;28;20656;-89
2022/05/29 10:14:37;;;;;;;5.73;2.20;;;;;;;14.64;67.23;97733.06;4102990;28;20655;-88
2022/05/29 10:16:59;;;;;;;5.23;2.83;;;;;;;14.65;68.33;97739.97;4113928;28;20634;-88
2022/05/29 10:19:04;;;;;;;7.03;3.40;;;;;;;14.74;68.04;97744.38;4104662;28;21331;-88
2022/05/29 10:21:15;;;;;;;3.93;2.30;;;;;;;14.79;67.82;97741.34;4109397;28;20662;-91
2022/05/29 10:23:31;;;;;;;3.80;2.10;;;;;;;14.83;68.38;97734.84;4107629;28;21205;-89
2022/05/29 10:25:43;;;;;;;3.87;2.00;;;;;;;14.83;68.24;97738.31;4124179;28;20648;-93
2022/05/29 10:27:47;;;;;;;3.43;1.90;;;;;;;14.73;66.80;97736.66;4108223;28;20639;-88